createdAt,value
2018-07-31T00:00:04.363Z,0
2018-07-31T00:01:04.362Z,0
2018-07-31T00:02:04.108Z,0
2018-07-31T00:03:04.360Z,0
2018-07-31T00:04:04.108Z,0
2018-07-31T00:05:04.357Z,0
2018-07-31T00:06:04.607Z,0
2018-07-31T00:07:04.607Z,0
2018-07-31T00:08:04.356Z,0
2018-07-31T00:09:04.103Z,0
2018-07-31T00:10:04.103Z,0
2018-07-31T00:11:04.603Z,0
2018-07-31T00:12:04.604Z,0
2018-07-31T00:13:04.346Z,0
2018-07-31T00:14:04.595Z,0
2018-07-31T00:15:04.094Z,0
2018-07-31T00:16:04.351Z,0
2018-07-31T00:17:04.096Z,0
2018-07-31T00:18:04.340Z,0
2018-07-31T00:19:04.342Z,0
2018-07-31T00:20:04.600Z,0
2018-07-31T00:21:04.086Z,0
2018-07-31T00:22:04.339Z,0
2018-07-31T00:23:04.086Z,0
2018-07-31T00:24:04.590Z,0
2018-07-31T00:25:04.331Z,0
2018-07-31T00:26:04.330Z,0
2018-07-31T00:27:04.583Z,0
2018-07-31T00:28:04.583Z,0
2018-07-31T00:29:04.579Z,0
2018-07-31T00:30:04.330Z,0
2018-07-31T00:31:03.820Z,0
2018-07-31T00:32:04.322Z,0
2018-07-31T00:33:04.325Z,0
2018-07-31T00:34:04.583Z,0
2018-07-31T00:35:04.566Z,0
2018-07-31T00:36:04.317Z,0
2018-07-31T00:37:04.316Z,0
2018-07-31T00:38:04.566Z,0
2018-07-31T00:39:04.318Z,0
2018-07-31T00:40:04.314Z,0
2018-07-31T00:41:04.321Z,0
2018-07-31T00:42:04.559Z,0
2018-07-31T00:43:04.059Z,0
2018-07-31T00:44:04.306Z,0
2018-07-31T00:45:04.311Z,0
2018-07-31T00:46:04.558Z,0
2018-07-31T00:47:04.301Z,0
2018-07-31T00:48:04.559Z,0
2018-07-31T00:49:04.048Z,0
2018-07-31T00:50:04.299Z,0
2018-07-31T00:51:04.295Z,0
2018-07-31T00:52:04.548Z,0
2018-07-31T00:53:04.290Z,0
2018-07-31T00:54:04.292Z,0
2018-07-31T00:55:04.294Z,0
2018-07-31T00:56:04.545Z,0
2018-07-31T00:57:04.538Z,0
2018-07-31T00:58:04.288Z,0
2018-07-31T00:59:04.545Z,0
2018-07-31T01:00:04.549Z,0
2018-07-31T01:01:04.281Z,0
2018-07-31T01:02:04.291Z,0
2018-07-31T01:03:04.277Z,0
2018-07-31T01:04:04.279Z,0
2018-07-31T01:05:04.273Z,0
2018-07-31T01:06:04.529Z,0
2018-07-31T01:07:04.271Z,0
2018-07-31T01:08:04.520Z,0
2018-07-31T01:09:04.268Z,0
2018-07-31T01:10:04.523Z,0
2018-07-31T01:11:04.843Z,0
2018-07-31T01:12:04.275Z,0
2018-07-31T01:13:04.517Z,0
2018-07-31T01:14:04.289Z,0
2018-07-31T01:15:04.263Z,0
2018-07-31T01:16:04.259Z,0
2018-07-31T01:17:04.257Z,0
2018-07-31T01:18:04.510Z,0
2018-07-31T01:19:04.254Z,0
2018-07-31T01:20:04.250Z,0
2018-07-31T01:21:04.255Z,0
2018-07-31T01:22:04.248Z,0
2018-07-31T01:23:04.249Z,0
2018-07-31T01:24:04.245Z,0
2018-07-31T01:25:04.247Z,0
2018-07-31T01:26:04.245Z,0
2018-07-31T01:27:04.243Z,0
2018-07-31T01:28:04.493Z,0
2018-07-31T01:29:04.235Z,0
2018-07-31T01:30:04.235Z,0
2018-07-31T01:31:04.233Z,0
2018-07-31T01:32:04.232Z,0
2018-07-31T01:33:04.234Z,0
2018-07-31T01:34:04.479Z,0
2018-07-31T01:35:04.224Z,0
2018-07-31T01:36:04.232Z,0
2018-07-31T01:37:04.472Z,0
2018-07-31T01:38:04.473Z,0
2018-07-31T01:39:04.224Z,0
2018-07-31T01:40:04.473Z,0
2018-07-31T01:41:04.477Z,0
2018-07-31T01:42:04.213Z,0
2018-07-31T01:43:03.958Z,0
2018-07-31T01:44:04.468Z,0
2018-07-31T01:45:04.464Z,0
2018-07-31T01:46:04.714Z,0
2018-07-31T01:47:04.464Z,0
2018-07-31T01:48:04.201Z,0
2018-07-31T01:49:04.205Z,0
2018-07-31T01:50:04.196Z,0
2018-07-31T01:51:04.193Z,0
2018-07-31T01:52:04.447Z,0
2018-07-31T01:53:04.194Z,0
2018-07-31T01:54:04.193Z,0
2018-07-31T01:55:04.191Z,0
2018-07-31T01:56:04.442Z,0
2018-07-31T01:57:04.187Z,0
2018-07-31T01:58:04.450Z,0
2018-07-31T01:59:04.433Z,0
2018-07-31T02:00:03.926Z,0
2018-07-31T02:01:03.928Z,0
2018-07-31T02:02:04.173Z,0
2018-07-31T02:03:04.171Z,0
2018-07-31T02:04:04.425Z,0
2018-07-31T02:05:04.418Z,0
2018-07-31T02:06:04.416Z,0
2018-07-31T02:07:03.922Z,0
2018-07-31T02:08:04.466Z,0
2018-07-31T02:09:04.158Z,0
2018-07-31T02:10:04.170Z,0
2018-07-31T02:11:03.909Z,0
2018-07-31T02:12:04.158Z,0
2018-07-31T02:13:04.152Z,0
2018-07-31T02:14:04.398Z,0
2018-07-31T02:15:04.400Z,0
2018-07-31T02:16:04.399Z,0
2018-07-31T02:17:04.401Z,0
2018-07-31T02:18:04.146Z,0
2018-07-31T02:19:04.395Z,0
2018-07-31T02:20:03.884Z,0
2018-07-31T02:21:04.131Z,0
2018-07-31T02:22:04.132Z,0
2018-07-31T02:23:04.128Z,0
2018-07-31T02:24:04.125Z,0
2018-07-31T02:25:04.128Z,0
2018-07-31T02:26:03.870Z,0
2018-07-31T02:27:04.373Z,0
2018-07-31T02:28:04.812Z,0
2018-07-31T02:29:04.116Z,0
2018-07-31T02:30:04.118Z,0
2018-07-31T02:31:04.375Z,0
2018-07-31T02:32:04.118Z,0
2018-07-31T02:33:04.112Z,0
2018-07-31T02:34:03.856Z,0
2018-07-31T02:35:04.362Z,0
2018-07-31T02:36:04.365Z,0
2018-07-31T02:37:04.357Z,0
2018-07-31T02:38:04.111Z,0
2018-07-31T02:39:03.841Z,4
2018-07-31T02:40:04.110Z,4
2018-07-31T02:41:04.092Z,4
2018-07-31T02:42:04.343Z,0
2018-07-31T02:43:04.089Z,4
2018-07-31T02:44:04.343Z,4
2018-07-31T02:45:04.344Z,4
2018-07-31T02:46:04.095Z,4
2018-07-31T02:47:03.854Z,8
2018-07-31T02:48:04.079Z,4
2018-07-31T02:49:04.078Z,4
2018-07-31T02:50:04.077Z,8
2018-07-31T02:51:04.330Z,12
2018-07-31T02:52:03.826Z,8
2018-07-31T02:53:04.414Z,12
2018-07-31T02:54:03.820Z,16
2018-07-31T02:55:04.317Z,16
2018-07-31T02:56:04.054Z,20
2018-07-31T02:57:04.123Z,20
2018-07-31T02:58:04.391Z,24
2018-07-31T02:59:04.049Z,28
2018-07-31T03:00:04.298Z,32
2018-07-31T03:01:04.048Z,36
2018-07-31T03:02:04.302Z,44
2018-07-31T03:03:04.067Z,44
2018-07-31T03:04:04.296Z,52
2018-07-31T03:05:04.038Z,60
2018-07-31T03:06:04.044Z,68
2018-07-31T03:07:04.032Z,76
2018-07-31T03:08:04.136Z,88
2018-07-31T03:09:04.284Z,96
2018-07-31T03:10:04.286Z,108
2018-07-31T03:11:04.387Z,120
2018-07-31T03:12:04.279Z,136
2018-07-31T03:13:04.275Z,148
2018-07-31T03:14:04.271Z,164
2018-07-31T03:15:04.010Z,180
2018-07-31T03:16:04.011Z,200
2018-07-31T03:17:04.263Z,220
2018-07-31T03:18:04.277Z,240
2018-07-31T03:19:03.747Z,260
2018-07-31T03:20:04.262Z,280
2018-07-31T03:21:04.010Z,308
2018-07-31T03:22:04.002Z,328
2018-07-31T03:23:03.987Z,356
2018-07-31T03:24:03.992Z,384
2018-07-31T03:25:04.255Z,412
2018-07-31T03:26:03.729Z,440
2018-07-31T03:27:04.252Z,476
2018-07-31T03:28:04.015Z,512
2018-07-31T03:29:03.975Z,552
2018-07-31T03:30:03.997Z,588
2018-07-31T03:31:03.970Z,624
2018-07-31T03:32:04.234Z,668
2018-07-31T03:33:03.963Z,712
2018-07-31T03:34:03.960Z,760
2018-07-31T03:35:03.967Z,800
2018-07-31T03:36:03.955Z,852
2018-07-31T03:37:04.208Z,900
2018-07-31T03:38:04.199Z,952
2018-07-31T03:39:03.950Z,1004
2018-07-31T03:40:03.952Z,1060
2018-07-31T03:41:03.941Z,1116
2018-07-31T03:42:03.939Z,1176
2018-07-31T03:43:04.192Z,1236
2018-07-31T03:44:04.195Z,1296
2018-07-31T03:45:03.682Z,1364
2018-07-31T03:46:03.940Z,1428
2018-07-31T03:47:03.925Z,1492
2018-07-31T03:48:03.931Z,1564
2018-07-31T03:49:03.921Z,1632
2018-07-31T03:50:04.333Z,1704
2018-07-31T03:51:03.921Z,1776
2018-07-31T03:52:03.914Z,1852
2018-07-31T03:53:03.918Z,1932
2018-07-31T03:54:03.911Z,2004
2018-07-31T03:55:03.910Z,2092
2018-07-31T03:56:03.910Z,2180
2018-07-31T03:57:04.157Z,2160
2018-07-31T03:58:03.902Z,2040
2018-07-31T03:59:03.897Z,2128
2018-07-31T04:00:03.899Z,2204
2018-07-31T04:01:03.896Z,2280
2018-07-31T04:02:03.893Z,2412
2018-07-31T04:03:04.148Z,2560
2018-07-31T04:04:03.887Z,2708
2018-07-31T04:05:03.900Z,2776
2018-07-31T04:06:04.139Z,2872
2018-07-31T04:07:03.879Z,2988
2018-07-31T04:08:04.143Z,3124
2018-07-31T04:09:03.876Z,3200
2018-07-31T04:10:03.882Z,3304
2018-07-31T04:11:03.620Z,3440
2018-07-31T04:12:03.886Z,3536
2018-07-31T04:13:03.878Z,3700
2018-07-31T04:14:03.869Z,3776
2018-07-31T04:15:04.136Z,3932
2018-07-31T04:16:03.879Z,3980
2018-07-31T04:17:04.430Z,4220
2018-07-31T04:18:03.615Z,4308
2018-07-31T04:19:03.614Z,4516
2018-07-31T04:20:03.617Z,4612
2018-07-31T04:21:04.114Z,4716
2018-07-31T04:22:03.864Z,5096
2018-07-31T04:23:03.862Z,5144
2018-07-31T04:24:04.112Z,5304
2018-07-31T04:25:04.115Z,5424
2018-07-31T04:26:03.863Z,5524
2018-07-31T04:27:04.114Z,5788
2018-07-31T04:28:04.132Z,5784
2018-07-31T04:29:03.864Z,5864
2018-07-31T04:30:04.247Z,5968
2018-07-31T04:31:03.618Z,5948
2018-07-31T04:32:03.873Z,5940
2018-07-31T04:33:04.122Z,6036
2018-07-31T04:34:03.874Z,6252
2018-07-31T04:35:04.127Z,6372
2018-07-31T04:36:04.385Z,6616
2018-07-31T04:37:03.880Z,6992
2018-07-31T04:38:03.890Z,7088
2018-07-31T04:39:04.138Z,7440
2018-07-31T04:40:03.892Z,7596
2018-07-31T04:41:03.891Z,7652
2018-07-31T04:42:03.899Z,7884
2018-07-31T04:43:04.154Z,8436
2018-07-31T04:44:04.161Z,8296
2018-07-31T04:45:03.919Z,8440
2018-07-31T04:46:04.170Z,9088
2018-07-31T04:47:03.916Z,9548
2018-07-31T04:48:03.671Z,9464
2018-07-31T04:49:04.181Z,10188
2018-07-31T04:50:03.940Z,11020
2018-07-31T04:51:03.941Z,10832
2018-07-31T04:52:03.947Z,11688
2018-07-31T04:53:03.949Z,11436
2018-07-31T04:54:03.965Z,11120
2018-07-31T04:55:03.988Z,12072
2018-07-31T04:56:03.969Z,11588
2018-07-31T04:57:03.977Z,11924
2018-07-31T04:58:03.735Z,12712
2018-07-31T04:59:03.783Z,13000
2018-07-31T05:00:04.005Z,13256
2018-07-31T05:01:04.004Z,13308
2018-07-31T05:02:04.268Z,13824
2018-07-31T05:03:03.769Z,14912
2018-07-31T05:04:04.277Z,14368
2018-07-31T05:05:04.289Z,14432
2018-07-31T05:06:04.307Z,16032
2018-07-31T05:07:04.052Z,15936
2018-07-31T05:08:04.346Z,14848
2018-07-31T05:09:04.065Z,16032
2018-07-31T05:10:03.831Z,17792
2018-07-31T05:11:04.317Z,16832
2018-07-31T05:12:04.348Z,16064
2018-07-31T05:13:04.364Z,18016
2018-07-31T05:14:04.110Z,19040
2018-07-31T05:15:04.380Z,17152
2018-07-31T05:16:03.881Z,16640
2018-07-31T05:17:04.397Z,19456
2018-07-31T05:18:04.149Z,18848
2018-07-31T05:19:04.169Z,15904
2018-07-31T05:20:04.167Z,17216
2018-07-31T05:21:03.926Z,19104
2018-07-31T05:22:04.438Z,17536
2018-07-31T05:23:04.201Z,17376
2018-07-31T05:24:04.204Z,18752
2018-07-31T05:25:04.215Z,17472
2018-07-31T05:26:04.483Z,17568
2018-07-31T05:27:04.488Z,21248
2018-07-31T05:28:04.245Z,20896
2018-07-31T05:29:04.260Z,16928
2018-07-31T05:30:04.269Z,18560
2018-07-31T05:31:04.535Z,22496
2018-07-31T05:32:04.038Z,22144
2018-07-31T05:33:04.554Z,21344
2018-07-31T05:34:04.311Z,21888
2018-07-31T05:35:04.079Z,20928
2018-07-31T05:36:04.089Z,21344
2018-07-31T05:37:04.349Z,24128
2018-07-31T05:38:04.356Z,24800
2018-07-31T05:39:04.369Z,22944
2018-07-31T05:40:04.127Z,21920
2018-07-31T05:41:04.639Z,20448
2018-07-31T05:42:04.406Z,21600
2018-07-31T05:43:04.674Z,25664
2018-07-31T05:44:04.426Z,27488
2018-07-31T05:45:04.696Z,23264
2018-07-31T05:46:04.200Z,20064
2018-07-31T05:47:04.461Z,22944
2018-07-31T05:48:04.223Z,28576
2018-07-31T05:49:04.485Z,29344
2018-07-31T05:50:04.756Z,23744
2018-07-31T05:51:04.512Z,20960
2018-07-31T05:52:04.972Z,25440
2018-07-31T05:53:04.536Z,28224
2018-07-31T05:54:04.552Z,25792
2018-07-31T05:55:04.564Z,25024
2018-07-31T05:56:04.322Z,27808
2018-07-31T05:57:04.838Z,28256
2018-07-31T05:58:04.854Z,26272
2018-07-31T05:59:04.879Z,24960
2018-07-31T06:00:04.622Z,26368
2018-07-31T06:01:04.901Z,30560
2018-07-31T06:02:04.401Z,32000
2018-07-31T06:03:04.663Z,28448
2018-07-31T06:04:04.936Z,26368
2018-07-31T06:05:04.945Z,29248
2018-07-31T06:06:04.962Z,33408
2018-07-31T06:07:04.976Z,32864
2018-07-31T06:08:04.735Z,28416
2018-07-31T06:09:04.745Z,27392
2018-07-31T06:10:05.020Z,31648
2018-07-31T06:11:04.772Z,35168
2018-07-31T06:12:05.040Z,34816
2018-07-31T06:13:04.803Z,31680
2018-07-31T06:14:05.070Z,28032
2018-07-31T06:15:05.126Z,28256
2018-07-31T06:16:05.096Z,31104
2018-07-31T06:17:05.112Z,31680
2018-07-31T06:18:05.128Z,30368
2018-07-31T06:19:05.141Z,28544
2018-07-31T06:20:04.651Z,28128
2018-07-31T06:21:04.666Z,28128
2018-07-31T06:22:05.188Z,27104
2018-07-31T06:23:04.945Z,25696
2018-07-31T06:24:05.218Z,24512
2018-07-31T06:25:05.227Z,23872
2018-07-31T06:26:05.241Z,23456
2018-07-31T06:27:05.198Z,22400
2018-07-31T06:28:05.067Z,21152
2018-07-31T06:29:04.797Z,21440
2018-07-31T06:30:05.301Z,22208
2018-07-31T06:31:05.321Z,22848
2018-07-31T06:32:05.386Z,22880
2018-07-31T06:33:05.465Z,23008
2018-07-31T06:34:05.368Z,22784
2018-07-31T06:35:05.379Z,23296
2018-07-31T06:36:05.145Z,25312
2018-07-31T06:37:05.410Z,24992
2018-07-31T06:38:05.439Z,23872
2018-07-31T06:39:05.445Z,24800
2018-07-31T06:40:05.458Z,28480
2018-07-31T06:41:05.233Z,34624
2018-07-31T06:42:05.246Z,34464
2018-07-31T06:43:05.011Z,30336
2018-07-31T06:44:05.272Z,33184
2018-07-31T06:45:05.292Z,44352
2018-07-31T06:46:05.560Z,51968
2018-07-31T06:47:05.574Z,51072
2018-07-31T06:48:05.595Z,43840
2018-07-31T06:49:05.354Z,41664
2018-07-31T06:50:05.370Z,46816
2018-07-31T06:51:05.400Z,55200
2018-07-31T06:52:05.401Z,69088
2018-07-31T06:53:05.673Z,83072
2018-07-31T06:54:05.434Z,88640
2018-07-31T06:55:05.707Z,80288
2018-07-31T06:56:05.725Z,65984
2018-07-31T06:57:05.757Z,51840
2018-07-31T06:58:05.503Z,42880
2018-07-31T06:59:05.514Z,40160
2018-07-31T07:00:05.795Z,39936
2018-07-31T07:01:05.801Z,42208
2018-07-31T07:02:06.044Z,48096
2018-07-31T07:03:05.835Z,52992
2018-07-31T07:04:05.645Z,54272
2018-07-31T07:05:05.873Z,52320
2018-07-31T07:06:05.630Z,49664
2018-07-31T07:07:05.899Z,47520
2018-07-31T07:08:05.670Z,45536
2018-07-31T07:09:05.932Z,42880
2018-07-31T07:10:05.713Z,41728
2018-07-31T07:11:05.971Z,41312
2018-07-31T07:12:05.738Z,40928
2018-07-31T07:13:06.002Z,40992
2018-07-31T07:14:06.015Z,41024
2018-07-31T07:15:06.039Z,41472
2018-07-31T07:16:05.296Z,41312
2018-07-31T07:17:06.070Z,40256
2018-07-31T07:18:06.086Z,39424
2018-07-31T07:19:05.850Z,37888
2018-07-31T07:20:05.868Z,37536
2018-07-31T07:21:06.137Z,37312
2018-07-31T07:22:06.151Z,36320
2018-07-31T07:23:06.167Z,34912
2018-07-31T07:24:05.681Z,33856
2018-07-31T07:25:05.951Z,33184
2018-07-31T07:26:05.969Z,33120
2018-07-31T07:27:06.243Z,33728
2018-07-31T07:28:06.075Z,33856
2018-07-31T07:29:06.268Z,32800
2018-07-31T07:30:06.038Z,30848
2018-07-31T07:31:06.062Z,29216
2018-07-31T07:32:05.815Z,28864
2018-07-31T07:33:05.837Z,27040
2018-07-31T07:34:06.882Z,23840
2018-07-31T07:35:06.119Z,22208
2018-07-31T07:36:06.135Z,20128
2018-07-31T07:37:05.900Z,16384
2018-07-31T07:38:05.916Z,15424
2018-07-31T07:39:05.934Z,18624
2018-07-31T07:40:06.530Z,23648
2018-07-31T07:41:06.225Z,29024
2018-07-31T07:42:05.981Z,33664
2018-07-31T07:43:06.507Z,36480
2018-07-31T07:44:06.268Z,36256
2018-07-31T07:45:06.542Z,34816
2018-07-31T07:46:06.554Z,34560
2018-07-31T07:47:06.574Z,35040
2018-07-31T07:48:06.334Z,36192
2018-07-31T07:49:06.098Z,40256
2018-07-31T07:50:06.620Z,42304
2018-07-31T07:51:06.383Z,38848
2018-07-31T07:52:06.401Z,36160
2018-07-31T07:53:06.413Z,39840
2018-07-31T07:54:07.212Z,45536
2018-07-31T07:55:06.211Z,46144
2018-07-31T07:56:06.466Z,40608
2018-07-31T07:57:06.479Z,35904
2018-07-31T07:58:06.501Z,37376
2018-07-31T07:59:06.521Z,45952
2018-07-31T08:00:06.278Z,53056
2018-07-31T08:01:06.823Z,54144
2018-07-31T08:02:06.574Z,54080
2018-07-31T08:03:06.581Z,57664
2018-07-31T08:04:07.210Z,61056
2018-07-31T08:05:06.618Z,59648
2018-07-31T08:06:06.626Z,56576
2018-07-31T08:07:06.393Z,53728
2018-07-31T08:08:06.656Z,56032
2018-07-31T08:09:06.928Z,64448
2018-07-31T08:10:06.694Z,71456
2018-07-31T08:11:06.981Z,74752
2018-07-31T08:12:06.973Z,77056
2018-07-31T08:13:06.484Z,80640
2018-07-31T08:14:07.010Z,78656
2018-07-31T08:15:07.098Z,73184
2018-07-31T08:16:07.036Z,70016
2018-07-31T08:17:06.802Z,72032
2018-07-31T08:18:07.083Z,73408
2018-07-31T08:19:06.833Z,66624
2018-07-31T08:20:06.846Z,58176
2018-07-31T08:21:06.610Z,58112
2018-07-31T08:22:06.624Z,69984
2018-07-31T08:23:06.894Z,82208
2018-07-31T08:24:07.189Z,82368
2018-07-31T08:25:06.938Z,70880
2018-07-31T08:26:07.198Z,60864
2018-07-31T08:27:07.209Z,62560
2018-07-31T08:28:07.225Z,70592
2018-07-31T08:29:07.243Z,75776
2018-07-31T08:30:07.256Z,71520
2018-07-31T08:31:07.279Z,68800
2018-07-31T08:32:07.041Z,72096
2018-07-31T08:33:07.301Z,76896
2018-07-31T08:34:07.319Z,77248
2018-07-31T08:35:07.334Z,74528
2018-07-31T08:36:07.343Z,73664
2018-07-31T08:37:07.107Z,71392
2018-07-31T08:38:07.121Z,62688
2018-07-31T08:39:07.402Z,53792
2018-07-31T08:40:06.903Z,54528
2018-07-31T08:41:07.426Z,64800
2018-07-31T08:42:06.950Z,75648
2018-07-31T08:43:07.212Z,82368
2018-07-31T08:44:07.472Z,84960
2018-07-31T08:45:07.490Z,83392
2018-07-31T08:46:07.501Z,74400
2018-07-31T08:47:07.525Z,64704
2018-07-31T08:48:07.539Z,56544
2018-07-31T08:49:07.549Z,56064
2018-07-31T08:50:07.562Z,60288
2018-07-31T08:51:07.374Z,67616
2018-07-31T08:52:07.595Z,48288
2018-07-31T08:53:07.359Z,15872
2018-07-31T08:54:07.371Z,7408
2018-07-31T08:55:07.415Z,7196
2018-07-31T08:56:07.400Z,7124
2018-07-31T08:57:07.923Z,7096
2018-07-31T08:58:07.428Z,7076
2018-07-31T08:59:07.438Z,7052
2018-07-31T09:00:07.715Z,7024
2018-07-31T09:01:07.466Z,6996
2018-07-31T09:02:07.738Z,6968
2018-07-31T09:03:07.756Z,6960
2018-07-31T09:04:07.502Z,6948
2018-07-31T09:05:07.768Z,6948
2018-07-31T09:06:07.780Z,6932
2018-07-31T09:07:07.795Z,6896
2018-07-31T09:08:07.724Z,6848
2018-07-31T09:09:07.652Z,6812
2018-07-31T09:10:07.570Z,6800
2018-07-31T09:11:07.835Z,6760
2018-07-31T09:12:07.836Z,6744
2018-07-31T09:13:07.594Z,6724
2018-07-31T09:14:07.608Z,6708
2018-07-31T09:15:07.362Z,6708
2018-07-31T09:16:07.375Z,6700
2018-07-31T09:17:07.884Z,6684
2018-07-31T09:18:07.389Z,6676
2018-07-31T09:19:07.658Z,6668
2018-07-31T09:20:07.660Z,6648
2018-07-31T09:21:07.664Z,6640
2018-07-31T09:22:07.928Z,6616
2018-07-31T09:23:07.939Z,6592
2018-07-31T09:24:07.692Z,6552
2018-07-31T09:25:07.953Z,6508
2018-07-31T09:26:07.958Z,6500
2018-07-31T09:27:07.963Z,6492
2018-07-31T09:28:07.970Z,6488
2018-07-31T09:29:07.477Z,6476
2018-07-31T09:30:07.756Z,6468
2018-07-31T09:31:09.027Z,6440
2018-07-31T09:32:07.761Z,6420
2018-07-31T09:33:07.762Z,6404
2018-07-31T09:34:08.037Z,6404
2018-07-31T09:35:07.522Z,6416
2018-07-31T09:36:07.780Z,6392
2018-07-31T09:37:07.789Z,6356
2018-07-31T09:38:07.944Z,6312
2018-07-31T09:39:07.558Z,6284
2018-07-31T09:40:08.062Z,6280
2018-07-31T09:41:07.573Z,6300
2018-07-31T09:42:07.825Z,6328
2018-07-31T09:43:08.089Z,6336
2018-07-31T09:44:07.853Z,6320
2018-07-31T09:45:08.149Z,6304
2018-07-31T09:46:07.852Z,6284
2018-07-31T09:47:08.116Z,6276
2018-07-31T09:48:07.876Z,6252
2018-07-31T09:49:07.874Z,6240
2018-07-31T09:50:08.142Z,6220
2018-07-31T09:51:07.639Z,6192
2018-07-31T09:52:07.897Z,6168
2018-07-31T09:53:08.184Z,6144
2018-07-31T09:54:07.919Z,6104
2018-07-31T09:55:08.181Z,6080
2018-07-31T09:56:08.182Z,6060
2018-07-31T09:57:08.270Z,6048
2018-07-31T09:58:08.186Z,6052
2018-07-31T09:59:08.410Z,6072
2018-07-31T10:00:08.225Z,6080
2018-07-31T10:01:08.221Z,6088
2018-07-31T10:02:07.969Z,6088
2018-07-31T10:03:08.226Z,6084
2018-07-31T10:04:07.985Z,6076
2018-07-31T10:05:08.182Z,6056
2018-07-31T10:06:07.993Z,6044
2018-07-31T10:07:08.258Z,6036
2018-07-31T10:08:08.009Z,6032
2018-07-31T10:09:08.263Z,6020
2018-07-31T10:10:08.021Z,5996
2018-07-31T10:11:08.283Z,5980
2018-07-31T10:12:08.459Z,5956
2018-07-31T10:13:07.791Z,5936
2018-07-31T10:14:07.797Z,5920
2018-07-31T10:15:08.306Z,5900
2018-07-31T10:16:08.332Z,5900
2018-07-31T10:17:08.330Z,5892
2018-07-31T10:18:08.323Z,5896
2018-07-31T10:19:08.338Z,5900
2018-07-31T10:20:08.096Z,5908
2018-07-31T10:21:08.098Z,5920
2018-07-31T10:22:08.354Z,5936
2018-07-31T10:23:07.862Z,5944
2018-07-31T10:24:08.191Z,5948
2018-07-31T10:25:08.132Z,5948
2018-07-31T10:26:07.630Z,5944
2018-07-31T10:27:08.141Z,5936
2018-07-31T10:28:08.454Z,5936
2018-07-31T10:29:08.156Z,5924
2018-07-31T10:30:08.161Z,5908
2018-07-31T10:31:08.557Z,5884
2018-07-31T10:32:07.926Z,5868
2018-07-31T10:33:07.935Z,5848
2018-07-31T10:34:08.457Z,5844
2018-07-31T10:35:08.200Z,5836
2018-07-31T10:36:08.205Z,5800
2018-07-31T10:37:07.957Z,5768
2018-07-31T10:38:08.227Z,5724
2018-07-31T10:39:08.233Z,5688
2018-07-31T10:40:08.491Z,5648
2018-07-31T10:41:08.495Z,5612
2018-07-31T10:42:08.247Z,5584
2018-07-31T10:43:08.508Z,5564
2018-07-31T10:44:07.758Z,5548
2018-07-31T10:45:08.268Z,5540
2018-07-31T10:46:08.025Z,5544
2018-07-31T10:47:08.283Z,5544
2018-07-31T10:48:08.538Z,5552
2018-07-31T10:49:08.558Z,5544
2018-07-31T10:50:08.300Z,5524
2018-07-31T10:51:08.101Z,5484
2018-07-31T10:52:07.810Z,5448
2018-07-31T10:53:08.574Z,5436
2018-07-31T10:54:08.329Z,5440
2018-07-31T10:55:08.981Z,5448
2018-07-31T10:56:08.341Z,5456
2018-07-31T10:57:08.349Z,5452
2018-07-31T10:58:08.595Z,5444
2018-07-31T10:59:08.616Z,5444
2018-07-31T11:00:08.507Z,5444
2018-07-31T11:01:08.635Z,5428
2018-07-31T11:02:08.389Z,5412
2018-07-31T11:03:08.992Z,5396
2018-07-31T11:04:09.245Z,5376
2018-07-31T11:05:08.408Z,5356
2018-07-31T11:06:08.467Z,5352
2018-07-31T11:07:08.680Z,5348
2018-07-31T11:08:08.694Z,5356
2018-07-31T11:09:08.439Z,5360
2018-07-31T11:10:08.200Z,5340
2018-07-31T11:11:08.697Z,5328
2018-07-31T11:12:08.712Z,5312
2018-07-31T11:13:08.236Z,5304
2018-07-31T11:14:08.215Z,5296
2018-07-31T11:15:08.231Z,5308
2018-07-31T11:16:08.492Z,5312
2018-07-31T11:17:08.749Z,5316
2018-07-31T11:18:08.498Z,5308
2018-07-31T11:19:08.788Z,5296
2018-07-31T11:20:08.510Z,5296
2018-07-31T11:21:09.189Z,5264
2018-07-31T11:22:08.524Z,5240
2018-07-31T11:23:08.280Z,5224
2018-07-31T11:24:08.542Z,5216
2018-07-31T11:25:08.545Z,5208
2018-07-31T11:26:08.343Z,5188
2018-07-31T11:27:08.558Z,5184
2018-07-31T11:28:08.572Z,5164
2018-07-31T11:29:08.575Z,5144
2018-07-31T11:30:08.831Z,5132
2018-07-31T11:31:08.842Z,5112
2018-07-31T11:32:08.846Z,5096
2018-07-31T11:33:08.790Z,5088
2018-07-31T11:34:08.870Z,5076
2018-07-31T11:35:08.614Z,5072
2018-07-31T11:36:08.624Z,5076
2018-07-31T11:37:08.882Z,5072
2018-07-31T11:38:08.888Z,5068
2018-07-31T11:39:08.645Z,5056
2018-07-31T11:40:08.904Z,5052
2018-07-31T11:41:08.657Z,5048
2018-07-31T11:42:08.666Z,5044
2018-07-31T11:43:08.680Z,5036
2018-07-31T11:44:09.278Z,5032
2018-07-31T11:45:08.687Z,5024
2018-07-31T11:46:08.697Z,5016
2018-07-31T11:47:08.703Z,5008
2018-07-31T11:48:08.705Z,5000
2018-07-31T11:49:08.462Z,4988
2018-07-31T11:50:09.280Z,4980
2018-07-31T11:51:08.477Z,4976
2018-07-31T11:52:08.995Z,4968
2018-07-31T11:53:08.996Z,4964
2018-07-31T11:54:08.501Z,4952
2018-07-31T11:55:08.768Z,4948
2018-07-31T11:56:08.761Z,4940
2018-07-31T11:57:08.773Z,4928
2018-07-31T11:58:08.524Z,4924
2018-07-31T11:59:08.532Z,4924
2018-07-31T12:00:08.797Z,4920
2018-07-31T12:01:08.802Z,4912
2018-07-31T12:02:09.081Z,4908
2018-07-31T12:03:08.313Z,4896
2018-07-31T12:04:08.327Z,4884
2018-07-31T12:05:08.829Z,4872
2018-07-31T12:06:08.835Z,4852
2018-07-31T12:07:08.844Z,4832
2018-07-31T12:08:08.851Z,4808
2018-07-31T12:09:08.353Z,4788
2018-07-31T12:10:08.616Z,4768
2018-07-31T12:11:09.131Z,4760
2018-07-31T12:12:09.134Z,4756
2018-07-31T12:13:08.638Z,4760
2018-07-31T12:14:08.982Z,4744
2018-07-31T12:15:08.906Z,4740
2018-07-31T12:16:09.449Z,4728
2018-07-31T12:17:08.924Z,4720
2018-07-31T12:18:08.928Z,4716
2018-07-31T12:19:09.393Z,4704
2018-07-31T12:20:08.436Z,4700
2018-07-31T12:21:09.202Z,4688
2018-07-31T12:22:08.958Z,4684
2018-07-31T12:23:08.965Z,4672
2018-07-31T12:24:09.231Z,4660
2018-07-31T12:25:08.983Z,4648
2018-07-31T12:26:09.235Z,4624
2018-07-31T12:27:09.569Z,4616
2018-07-31T12:28:09.253Z,4620
2018-07-31T12:29:09.004Z,4608
2018-07-31T12:30:08.510Z,4604
2018-07-31T12:31:09.270Z,4600
2018-07-31T12:32:09.284Z,4588
2018-07-31T12:33:09.260Z,4580
2018-07-31T12:34:08.795Z,4564
2018-07-31T12:35:09.301Z,4556
2018-07-31T12:36:09.308Z,4552
2018-07-31T12:37:08.812Z,4544
2018-07-31T12:38:09.201Z,4532
2018-07-31T12:39:08.838Z,4536
2018-07-31T12:40:09.086Z,4520
2018-07-31T12:41:09.347Z,4504
2018-07-31T12:42:09.355Z,4492
2018-07-31T12:43:09.108Z,4480
2018-07-31T12:44:09.345Z,4468
2018-07-31T12:45:09.128Z,4448
2018-07-31T12:46:09.390Z,4436
2018-07-31T12:47:09.388Z,4420
2018-07-31T12:48:08.897Z,4412
2018-07-31T12:49:09.405Z,4412
2018-07-31T12:50:09.029Z,4408
2018-07-31T12:51:09.165Z,4412
2018-07-31T12:52:09.176Z,4408
2018-07-31T12:53:09.431Z,4400
2018-07-31T12:54:09.190Z,4400
2018-07-31T12:55:09.195Z,4380
2018-07-31T12:56:09.201Z,4368
2018-07-31T12:57:09.209Z,4360
2018-07-31T12:58:09.217Z,4348
2018-07-31T12:59:09.225Z,4340
2018-07-31T13:00:09.427Z,4328
2018-07-31T13:01:09.586Z,4324
2018-07-31T13:02:09.244Z,4316
2018-07-31T13:03:09.506Z,4312
2018-07-31T13:04:09.511Z,4312
2018-07-31T13:05:09.265Z,4304
2018-07-31T13:06:09.022Z,4300
2018-07-31T13:07:09.542Z,4304
2018-07-31T13:08:09.040Z,4300
2018-07-31T13:09:09.303Z,4296
2018-07-31T13:10:09.557Z,4292
2018-07-31T13:11:09.313Z,4288
2018-07-31T13:12:09.319Z,4284
2018-07-31T13:13:09.389Z,4288
2018-07-31T13:14:09.337Z,4288
2018-07-31T13:15:09.345Z,4280
2018-07-31T13:16:09.347Z,4280
2018-07-31T13:17:09.606Z,4272
2018-07-31T13:18:09.622Z,4268
2018-07-31T13:19:09.377Z,4264
2018-07-31T13:20:09.635Z,4260
2018-07-31T13:21:09.637Z,4256
2018-07-31T13:22:09.647Z,4248
2018-07-31T13:23:09.148Z,4248
2018-07-31T13:24:09.664Z,4244
2018-07-31T13:25:09.677Z,4240
2018-07-31T13:26:09.421Z,4232
2018-07-31T13:27:09.431Z,4224
2018-07-31T13:28:09.437Z,4220
2018-07-31T13:29:09.702Z,4212